createdAt,value
2018-06-27T00:01:51.969Z,5.90
2018-06-27T00:04:19.196Z,5.60
2018-06-27T00:06:46.509Z,5.80
2018-06-27T00:09:13.748Z,6.40
2018-06-27T00:11:41.025Z,5.97
2018-06-27T00:14:08.301Z,5.77
2018-06-27T00:16:35.578Z,5.00
2018-06-27T00:19:02.832Z,5.10
2018-06-27T00:21:30.068Z,5.70
2018-06-27T00:23:57.332Z,5.80
2018-06-27T00:26:24.593Z,6.10
2018-06-27T00:28:51.852Z,5.10
2018-06-27T00:31:19.102Z,5.57
2018-06-27T00:33:46.347Z,5.70
2018-06-27T00:36:13.572Z,6.10
2018-06-27T00:38:40.842Z,5.33
2018-06-27T00:41:08.165Z,5.40
2018-06-27T00:43:35.418Z,5.50
2018-06-27T00:46:02.669Z,5.30
2018-06-27T00:48:30.007Z,5.10
2018-06-27T00:50:57.292Z,5.50
2018-06-27T00:53:30.321Z,5.10
2018-06-27T00:55:57.554Z,5.53
2018-06-27T00:58:24.788Z,5.43
2018-06-27T01:00:52.089Z,4.60
2018-06-27T01:03:19.296Z,5.10
2018-06-27T01:05:46.529Z,5.20
2018-06-27T01:08:13.753Z,4.73
2018-06-27T01:10:41.037Z,5.47
2018-06-27T01:13:08.192Z,6.13
2018-06-27T01:15:35.424Z,5.83
2018-06-27T01:18:02.656Z,5.57
2018-06-27T01:20:29.869Z,5.17
2018-06-27T01:22:57.065Z,5.47
2018-06-27T01:25:24.268Z,6.33
2018-06-27T01:27:51.456Z,5.53
2018-06-27T01:30:18.651Z,5.40
2018-06-27T01:32:46.013Z,4.83
2018-06-27T01:35:13.636Z,5.30
2018-06-27T01:37:40.922Z,5.60
2018-06-27T01:40:08.225Z,4.60
2018-06-27T01:42:35.491Z,4.93
2018-06-27T01:45:02.826Z,4.80
2018-06-27T01:47:30.074Z,5.03
2018-06-27T01:49:57.545Z,4.90
2018-06-27T01:52:24.777Z,4.67
2018-06-27T01:54:52.046Z,5.67
2018-06-27T01:57:19.386Z,4.97
2018-06-27T01:59:46.682Z,5.50
2018-06-27T02:02:13.969Z,4.97
2018-06-27T02:04:41.341Z,5.53
2018-06-27T02:07:08.645Z,5.70
2018-06-27T02:09:35.910Z,4.33
2018-06-27T02:12:03.257Z,4.20
2018-06-27T02:14:30.530Z,6.20
2018-06-27T02:16:57.805Z,5.67
2018-06-27T02:19:25.093Z,5.30
2018-06-27T02:21:52.365Z,4.60
2018-06-27T02:24:19.617Z,4.57
2018-06-27T02:26:46.910Z,4.87
2018-06-27T02:29:14.157Z,5.27
2018-06-27T02:31:41.433Z,5.37
2018-06-27T02:34:08.685Z,5.10
2018-06-27T02:36:35.972Z,5.90
2018-06-27T02:39:05.051Z,5.17
2018-06-27T02:41:32.306Z,4.73
2018-06-27T02:43:59.597Z,4.30
2018-06-27T02:46:26.854Z,4.67
2018-06-27T02:48:54.146Z,4.73
2018-06-27T02:51:21.392Z,4.70
2018-06-27T02:53:48.671Z,4.97
2018-06-27T02:56:15.928Z,4.80
2018-06-27T02:58:43.209Z,5.07
2018-06-27T03:01:10.606Z,5.10
2018-06-27T03:03:37.846Z,4.60
2018-06-27T03:06:05.302Z,4.80
2018-06-27T03:08:32.621Z,5.20
2018-06-27T03:10:59.865Z,5.60
2018-06-27T03:13:27.141Z,4.50
2018-06-27T03:15:56.361Z,5.60
2018-06-27T03:18:23.642Z,5.13
2018-06-27T03:20:50.920Z,4.50
2018-06-27T03:23:18.196Z,4.53
2018-06-27T03:25:45.474Z,4.20
2018-06-27T03:28:12.769Z,5.43
2018-06-27T03:30:40.050Z,5.00
2018-06-27T03:33:07.324Z,5.60
2018-06-27T03:35:34.666Z,5.57
2018-06-27T03:38:01.956Z,5.50
2018-06-27T03:40:29.232Z,5.40
2018-06-27T03:42:56.510Z,5.20
2018-06-27T03:45:23.781Z,6.23
2018-06-27T03:47:51.090Z,5.90
2018-06-27T03:50:18.377Z,4.70
2018-06-27T03:52:47.385Z,5.20
2018-06-27T03:55:15.058Z,5.93
2018-06-27T03:57:42.421Z,5.50
2018-06-27T04:00:09.649Z,5.67
2018-06-27T04:02:36.933Z,5.33
2018-06-27T04:05:04.501Z,5.17
2018-06-27T04:07:31.803Z,5.13
2018-06-27T04:09:59.106Z,5.53
2018-06-27T04:12:26.418Z,5.17
2018-06-27T04:14:53.738Z,5.27
2018-06-27T04:17:21.282Z,6.03
2018-06-27T04:19:48.573Z,5.60
2018-06-27T04:22:20.406Z,6.30
2018-06-27T04:24:47.666Z,5.67
2018-06-27T04:27:14.911Z,5.70
2018-06-27T04:29:42.198Z,6.37
2018-06-27T04:32:09.514Z,5.47
2018-06-27T04:34:36.787Z,5.93
2018-06-27T04:37:04.038Z,6.00
2018-06-27T04:39:31.330Z,6.37
2018-06-27T04:41:58.582Z,5.50
2018-06-27T04:44:25.851Z,5.73
2018-06-27T04:46:53.158Z,5.10
2018-06-27T04:49:20.397Z,6.03
2018-06-27T04:51:47.662Z,5.53
2018-06-27T04:54:14.936Z,6.60
2018-06-27T04:56:42.181Z,6.00
2018-06-27T04:59:09.475Z,6.30
2018-06-27T05:01:36.868Z,6.67
2018-06-27T05:04:04.162Z,7.70
2018-06-27T05:06:31.401Z,7.17
2018-06-27T05:08:58.662Z,7.43
2018-06-27T05:11:25.946Z,6.60
2018-06-27T05:13:53.178Z,6.90
2018-06-27T05:16:20.413Z,6.60
2018-06-27T05:18:47.685Z,7.53
2018-06-27T05:21:14.921Z,6.90
2018-06-27T05:23:42.206Z,7.17
2018-06-27T05:26:09.575Z,8.33
2018-06-27T05:28:36.861Z,7.07
2018-06-27T05:31:04.116Z,7.13
2018-06-27T05:33:31.418Z,7.60
2018-06-27T05:35:58.726Z,7.17
2018-06-27T05:38:25.985Z,7.30
2018-06-27T05:40:53.305Z,7.80
2018-06-27T05:43:20.553Z,6.23
2018-06-27T05:45:47.849Z,7.23
2018-06-27T05:48:15.129Z,6.43
2018-06-27T05:50:42.389Z,6.50
2018-06-27T05:53:09.671Z,7.00
2018-06-27T05:55:36.967Z,6.10
2018-06-27T05:58:04.308Z,6.03
2018-06-27T06:00:31.553Z,6.50
2018-06-27T06:02:58.814Z,6.10
2018-06-27T06:05:26.130Z,6.73
2018-06-27T06:07:53.369Z,6.50
2018-06-27T06:10:20.650Z,5.50
2018-06-27T06:12:47.900Z,6.60
2018-06-27T06:15:15.198Z,6.20
2018-06-27T06:17:42.449Z,5.40
2018-06-27T06:20:09.760Z,5.83
2018-06-27T06:22:37.041Z,5.43
2018-06-27T06:25:04.609Z,6.13
2018-06-27T06:27:31.854Z,5.90
2018-06-27T06:29:59.129Z,6.57
2018-06-27T06:32:26.407Z,6.40
2018-06-27T06:34:53.650Z,6.37
2018-06-27T06:37:20.946Z,6.80
2018-06-27T06:39:48.218Z,7.00
2018-06-27T06:42:15.458Z,5.80
2018-06-27T06:44:42.725Z,6.10
2018-06-27T06:47:10.034Z,6.00
2018-06-27T06:49:37.382Z,6.47
2018-06-27T06:52:04.734Z,5.77
2018-06-27T06:54:32.497Z,6.93
2018-06-27T06:56:59.786Z,6.80
2018-06-27T06:59:27.049Z,6.90
2018-06-27T07:01:54.294Z,6.90
2018-06-27T07:04:21.583Z,7.07
2018-06-27T07:06:48.845Z,7.43
2018-06-27T07:09:16.166Z,7.03
2018-06-27T07:11:43.401Z,6.90
2018-06-27T07:14:11.668Z,6.43
2018-06-27T07:16:39.530Z,6.67
2018-06-27T07:19:06.933Z,6.40
2018-06-27T07:21:34.197Z,6.40
2018-06-27T07:24:01.588Z,6.20
2018-06-27T07:26:28.869Z,6.37
2018-06-27T07:28:56.131Z,6.90
2018-06-27T07:31:23.465Z,6.10
2018-06-27T07:33:50.994Z,6.53
2018-06-27T07:36:18.306Z,6.70
2018-06-27T07:38:45.601Z,5.73
2018-06-27T07:41:12.994Z,6.27
2018-06-27T07:43:40.461Z,5.30
2018-06-27T07:46:07.731Z,4.30
2018-06-27T07:48:35.030Z,4.83
2018-06-27T07:51:02.318Z,5.97
2018-06-27T07:53:29.558Z,4.80
2018-06-27T07:55:56.852Z,5.90
2018-06-27T07:58:24.113Z,4.63
2018-06-27T08:00:51.397Z,5.30
2018-06-27T08:03:18.707Z,4.93
2018-06-27T08:05:46.000Z,4.73
2018-06-27T08:08:13.298Z,3.90
2018-06-27T08:10:40.566Z,4.10
2018-06-27T08:13:07.869Z,4.23
2018-06-27T08:15:35.114Z,4.67
2018-06-27T08:18:02.502Z,3.60
2018-06-27T08:20:29.769Z,3.80
2018-06-27T08:22:57.014Z,4.43
2018-06-27T08:25:24.305Z,4.00
2018-06-27T08:27:51.617Z,3.20
2018-06-27T08:30:18.943Z,4.07
2018-06-27T08:32:46.209Z,3.53
2018-06-27T08:35:13.540Z,4.80
2018-06-27T08:37:40.802Z,4.43
2018-06-27T08:40:08.089Z,4.17
2018-06-27T08:42:35.342Z,4.23
2018-06-27T08:45:03.032Z,4.23
2018-06-27T08:47:30.314Z,3.90
2018-06-27T08:49:57.648Z,3.23
2018-06-27T08:52:24.904Z,2.90
2018-06-27T08:54:52.153Z,3.07
2018-06-27T08:57:19.465Z,3.50
2018-06-27T08:59:47.358Z,3.00
2018-06-27T09:02:14.614Z,2.63
2018-06-27T09:04:41.908Z,2.90
2018-06-27T09:07:09.637Z,3.20
2018-06-27T09:09:36.921Z,4.63
2018-06-27T09:12:04.266Z,6.80
2018-06-27T09:14:31.547Z,3.50
2018-06-27T09:16:58.805Z,3.60
2018-06-27T09:19:26.113Z,2.97
2018-06-27T09:21:53.398Z,2.73
2018-06-27T09:24:20.697Z,2.27
2018-06-27T09:26:47.990Z,2.43
2018-06-27T09:29:15.288Z,2.80
2018-06-27T09:31:42.602Z,2.50
2018-06-27T09:34:09.871Z,2.77
2018-06-27T09:36:37.126Z,2.30
2018-06-27T09:39:07.361Z,2.57
2018-06-27T09:41:34.709Z,2.10
2018-06-27T09:44:02.047Z,2.43
2018-06-27T09:46:29.306Z,2.40
2018-06-27T09:48:56.578Z,1.90
2018-06-27T09:51:23.854Z,2.23
2018-06-27T09:53:51.414Z,2.50
2018-06-27T09:56:18.693Z,2.30
2018-06-27T09:58:45.933Z,2.60
2018-06-27T10:01:13.206Z,2.23
2018-06-27T10:03:40.574Z,2.20
2018-06-27T10:06:07.842Z,2.10
2018-06-27T10:08:35.150Z,2.00
2018-06-27T10:11:02.454Z,3.30
2018-06-27T10:13:29.722Z,2.30
2018-06-27T10:15:56.986Z,2.50
2018-06-27T10:18:24.310Z,2.40
2018-06-27T10:20:51.654Z,2.50
2018-06-27T10:23:18.901Z,1.90
2018-06-27T10:25:46.170Z,2.23
2018-06-27T10:28:13.434Z,1.60
2018-06-27T10:30:40.681Z,1.93
2018-06-27T10:33:08.010Z,2.07
2018-06-27T10:35:35.266Z,1.50
2018-06-27T10:38:02.546Z,2.80
2018-06-27T10:40:29.805Z,2.30
2018-06-27T10:42:57.157Z,2.20
2018-06-27T10:45:24.433Z,2.93
2018-06-27T10:47:51.727Z,2.40
2018-06-27T10:50:18.995Z,2.43
2018-06-27T10:52:46.262Z,2.30
2018-06-27T10:55:18.962Z,2.10
2018-06-27T10:57:46.242Z,2.10
2018-06-27T11:00:13.520Z,2.20
2018-06-27T11:02:40.802Z,2.50
2018-06-27T11:05:08.070Z,2.30
2018-06-27T11:07:35.353Z,2.40
2018-06-27T11:10:02.670Z,2.97
2018-06-27T11:12:29.967Z,2.40
2018-06-27T11:14:57.238Z,2.70
2018-06-27T11:17:24.517Z,2.60
2018-06-27T11:19:51.793Z,2.30
2018-06-27T11:22:19.146Z,3.30
2018-06-27T11:24:46.389Z,3.37
2018-06-27T11:27:13.658Z,2.53
2018-06-27T11:29:40.969Z,1.90
2018-06-27T11:32:08.373Z,2.30
2018-06-27T11:34:35.615Z,1.97
2018-06-27T11:37:02.993Z,2.17
2018-06-27T11:39:30.258Z,2.23
2018-06-27T11:41:57.514Z,2.10
2018-06-27T11:44:24.862Z,2.13
2018-06-27T11:46:52.054Z,1.83
2018-06-27T11:49:19.310Z,2.00
2018-06-27T11:51:46.581Z,2.10
2018-06-27T11:54:13.921Z,2.10
2018-06-27T11:56:41.205Z,1.90
2018-06-27T11:59:08.509Z,2.17
2018-06-27T12:01:35.797Z,2.27
2018-06-27T12:04:03.105Z,2.30
2018-06-27T12:06:30.374Z,2.00
2018-06-27T12:08:57.688Z,2.10
2018-06-27T12:11:24.938Z,2.10
2018-06-27T12:13:52.249Z,2.10
2018-06-27T12:16:19.902Z,2.00
2018-06-27T12:18:47.542Z,1.50
2018-06-27T12:21:14.847Z,1.97
2018-06-27T12:23:42.274Z,1.83
2018-06-27T12:26:09.585Z,1.70
2018-06-27T12:28:36.862Z,1.80
2018-06-27T12:31:04.121Z,1.80
2018-06-27T12:33:31.451Z,2.17
2018-06-27T12:35:58.706Z,1.97
2018-06-27T12:38:25.978Z,1.90
2018-06-27T12:40:53.248Z,1.70
2018-06-27T12:43:20.550Z,2.10
2018-06-27T12:45:47.814Z,2.00
2018-06-27T12:48:15.061Z,1.90
2018-06-27T12:50:42.353Z,1.67
2018-06-27T12:53:09.625Z,2.13
2018-06-27T12:55:36.921Z,1.73
2018-06-27T12:58:04.402Z,2.00
2018-06-27T13:00:31.753Z,1.67
2018-06-27T13:02:58.950Z,1.73
2018-06-27T13:05:26.253Z,2.37
2018-06-27T13:07:53.541Z,2.03
2018-06-27T13:10:20.801Z,2.33
2018-06-27T13:12:48.731Z,2.33
2018-06-27T13:15:16.198Z,2.03
2018-06-27T13:17:43.518Z,1.60
2018-06-27T13:20:10.773Z,2.20
2018-06-27T13:22:38.098Z,1.90
2018-06-27T13:25:05.393Z,2.60
2018-06-27T13:27:32.728Z,2.07
2018-06-27T13:30:00.048Z,2.20
2018-06-27T13:32:27.470Z,2.10
2018-06-27T13:34:54.805Z,2.20
2018-06-27T13:37:22.066Z,2.60
2018-06-27T13:39:49.327Z,2.30
2018-06-27T13:42:16.821Z,2.93
2018-06-27T13:44:44.151Z,2.60
2018-06-27T13:47:11.577Z,2.27
2018-06-27T13:49:38.855Z,2.67
2018-06-27T13:52:06.202Z,2.50
2018-06-27T13:54:33.485Z,1.90
2018-06-27T13:57:00.781Z,1.90
2018-06-27T13:59:28.109Z,2.20
2018-06-27T14:01:55.366Z,2.30
2018-06-27T14:04:22.634Z,2.10
2018-06-27T14:06:49.939Z,2.37
2018-06-27T14:09:17.214Z,2.43
2018-06-27T14:11:44.494Z,2.20
2018-06-27T14:14:11.773Z,2.40
2018-06-27T14:16:39.137Z,2.50
2018-06-27T14:19:06.409Z,2.80
2018-06-27T14:21:33.781Z,2.60
2018-06-27T14:24:01.124Z,2.73
2018-06-27T14:26:28.410Z,2.70
2018-06-27T14:28:55.773Z,2.80
2018-06-27T14:31:23.014Z,3.10
2018-06-27T14:33:50.654Z,3.10
2018-06-27T14:36:18.222Z,2.93
2018-06-27T14:38:45.502Z,2.67
2018-06-27T14:41:12.847Z,3.00
2018-06-27T14:43:40.109Z,3.20
2018-06-27T14:46:07.582Z,3.20
2018-06-27T14:48:35.113Z,3.30
2018-06-27T14:51:02.377Z,3.40
2018-06-27T14:53:29.653Z,3.40
2018-06-27T14:55:56.947Z,3.80
2018-06-27T14:58:24.278Z,3.30
2018-06-27T15:00:51.590Z,3.20
2018-06-27T15:03:18.871Z,3.83
2018-06-27T15:05:46.159Z,3.57
2018-06-27T15:08:13.454Z,3.67
2018-06-27T15:10:40.726Z,3.30
2018-06-27T15:13:08.015Z,3.20
2018-06-27T15:15:35.319Z,3.70
2018-06-27T15:18:02.570Z,3.40
2018-06-27T15:20:29.945Z,3.40
2018-06-27T15:22:57.154Z,3.57
2018-06-27T15:25:24.450Z,4.23
2018-06-27T15:27:51.754Z,3.77
2018-06-27T15:30:19.137Z,3.47
2018-06-27T15:32:46.434Z,3.67
2018-06-27T15:35:13.803Z,3.70
2018-06-27T15:37:41.118Z,3.73
2018-06-27T15:40:08.462Z,3.63
2018-06-27T15:42:35.775Z,3.63
2018-06-27T15:45:03.270Z,4.40
2018-06-27T15:47:30.511Z,4.07
2018-06-27T15:49:57.817Z,4.13
2018-06-27T15:52:25.088Z,3.43
2018-06-27T15:54:52.370Z,3.20
2018-06-27T15:57:20.429Z,3.27
2018-06-27T15:59:50.155Z,3.63
2018-06-27T16:02:17.521Z,3.60
2018-06-27T16:04:44.879Z,3.30
2018-06-27T16:07:12.184Z,3.53
2018-06-27T16:09:39.469Z,3.20
2018-06-27T16:12:06.614Z,3.00
2018-06-27T16:14:33.922Z,2.93
2018-06-27T16:17:01.393Z,2.70
2018-06-27T16:19:28.552Z,2.90
2018-06-27T16:21:55.817Z,3.47
2018-06-27T16:24:23.082Z,2.87
2018-06-27T16:26:50.370Z,3.07
2018-06-27T16:29:17.641Z,3.10
2018-06-27T16:31:44.971Z,2.40
2018-06-27T16:34:12.301Z,2.43
2018-06-27T16:36:39.582Z,2.23
2018-06-27T16:39:07.913Z,2.20
2018-06-27T16:41:35.266Z,2.20
2018-06-27T16:44:02.567Z,2.57
2018-06-27T16:46:29.868Z,1.80
2018-06-27T16:48:57.150Z,1.70
2018-06-27T16:51:24.629Z,1.70
2018-06-27T16:53:51.874Z,1.57
2018-06-27T16:56:19.110Z,2.50
2018-06-27T16:58:46.678Z,1.90
2018-06-27T17:01:14.036Z,2.10
2018-06-27T17:03:41.348Z,2.77
2018-06-27T17:06:08.640Z,2.50
2018-06-27T17:08:35.957Z,2.23
2018-06-27T17:11:03.277Z,1.90
2018-06-27T17:13:30.675Z,2.50
2018-06-27T17:15:57.973Z,2.37
2018-06-27T17:18:25.259Z,2.20
2018-06-27T17:20:52.541Z,1.97
2018-06-27T17:23:19.797Z,2.80
2018-06-27T17:25:47.222Z,2.23
2018-06-27T17:28:14.518Z,2.70
2018-06-27T17:30:41.822Z,2.00
2018-06-27T17:33:09.209Z,2.43
2018-06-27T17:35:36.532Z,2.57
2018-06-27T17:38:03.846Z,2.30
2018-06-27T17:40:31.174Z,2.70
2018-06-27T17:42:58.461Z,2.60
2018-06-27T17:45:25.799Z,3.10
2018-06-27T17:47:53.092Z,2.10
2018-06-27T17:50:20.362Z,2.10
2018-06-27T17:52:47.654Z,2.37
2018-06-27T17:55:15.034Z,2.50
2018-06-27T17:57:42.505Z,2.70
2018-06-27T18:00:09.831Z,2.90
2018-06-27T18:02:37.249Z,2.70
2018-06-27T18:05:04.525Z,3.33
2018-06-27T18:07:31.959Z,3.10
2018-06-27T18:09:59.255Z,2.70
2018-06-27T18:12:26.565Z,3.07
2018-06-27T18:14:53.903Z,2.80
2018-06-27T18:17:21.286Z,2.43
2018-06-27T18:19:48.771Z,2.37
2018-06-27T18:22:16.158Z,2.47
2018-06-27T18:24:43.414Z,2.17
2018-06-27T18:27:10.683Z,2.80
2018-06-27T18:29:37.973Z,2.90
2018-06-27T18:32:05.505Z,2.80
2018-06-27T18:34:32.819Z,2.30
2018-06-27T18:37:00.098Z,2.60
2018-06-27T18:39:27.381Z,2.30
2018-06-27T18:41:54.642Z,2.17
2018-06-27T18:44:21.899Z,2.13
2018-06-27T18:46:49.318Z,2.30
2018-06-27T18:49:16.589Z,2.30
2018-06-27T18:51:43.905Z,2.23
2018-06-27T18:54:11.197Z,2.67
2018-06-27T18:56:38.497Z,2.70
2018-06-27T18:59:05.850Z,2.33
2018-06-27T19:01:33.226Z,2.07
2018-06-27T19:04:00.521Z,2.40
2018-06-27T19:06:27.825Z,2.13
2018-06-27T19:08:55.083Z,2.20
2018-06-27T19:11:22.360Z,2.20
2018-06-27T19:13:49.734Z,2.50
2018-06-27T19:16:16.985Z,2.23
2018-06-27T19:18:44.802Z,2.70
2018-06-27T19:21:12.115Z,2.60
2018-06-27T19:23:39.403Z,2.77
2018-06-27T19:26:06.785Z,2.87
2018-06-27T19:28:34.066Z,2.70
2018-06-27T19:31:01.346Z,2.20
2018-06-27T19:33:28.627Z,3.10
2018-06-27T19:35:55.950Z,3.00
2018-06-27T19:38:23.230Z,2.37
2018-06-27T19:40:50.634Z,2.80
2018-06-27T19:43:17.810Z,2.90
2018-06-27T19:45:45.203Z,2.43
2018-06-27T19:48:12.410Z,2.83
2018-06-27T19:50:39.686Z,3.03
2018-06-27T19:53:06.985Z,2.53
2018-06-27T19:55:34.649Z,3.40
2018-06-27T19:58:01.893Z,3.03
2018-06-27T20:00:29.186Z,2.80
2018-06-27T20:02:56.561Z,2.47
2018-06-27T20:05:23.813Z,3.77
2018-06-27T20:07:51.187Z,3.00
2018-06-27T20:10:18.489Z,2.30
2018-06-27T20:12:45.717Z,2.83
2018-06-27T20:15:13.089Z,3.20
2018-06-27T20:17:40.412Z,2.47
2018-06-27T20:20:08.053Z,4.00
2018-06-27T20:22:35.438Z,2.80
2018-06-27T20:25:02.761Z,3.13
2018-06-27T20:27:30.084Z,2.97
2018-06-27T20:29:57.338Z,3.30
2018-06-27T20:32:24.667Z,3.30
2018-06-27T20:34:52.011Z,3.13
2018-06-27T20:37:19.393Z,2.93
2018-06-27T20:39:46.617Z,3.30
2018-06-27T20:42:13.913Z,3.23
2018-06-27T20:44:41.162Z,3.13
2018-06-27T20:47:08.509Z,3.33
2018-06-27T20:49:35.854Z,3.43
2018-06-27T20:52:03.153Z,3.60
2018-06-27T20:54:30.429Z,3.03
2018-06-27T20:56:57.754Z,3.07
2018-06-27T20:59:25.025Z,2.80
2018-06-27T21:01:52.347Z,2.70
2018-06-27T21:04:19.648Z,3.23
2018-06-27T21:06:47.253Z,3.47
2018-06-27T21:09:14.515Z,3.23
2018-06-27T21:11:41.810Z,3.43
2018-06-27T21:14:09.079Z,3.10
2018-06-27T21:16:36.386Z,3.20
2018-06-27T21:19:03.669Z,2.80
2018-06-27T21:21:31.014Z,2.87
2018-06-27T21:23:58.268Z,3.10
2018-06-27T21:26:25.645Z,3.00
2018-06-27T21:28:52.914Z,3.00
2018-06-27T21:31:20.233Z,3.27
2018-06-27T21:33:47.604Z,3.67
2018-06-27T21:36:14.862Z,3.03
2018-06-27T21:38:42.118Z,3.50
2018-06-27T21:41:09.392Z,3.33
2018-06-27T21:43:36.669Z,3.23
2018-06-27T21:46:03.963Z,3.70
2018-06-27T21:48:31.246Z,3.40
2018-06-27T21:50:58.543Z,3.50
2018-06-27T21:53:25.861Z,3.20
2018-06-27T21:55:53.255Z,3.60
2018-06-27T21:58:20.522Z,3.50
2018-06-27T22:00:47.829Z,3.40
2018-06-27T22:03:15.130Z,3.57
2018-06-27T22:05:42.446Z,3.43
2018-06-27T22:08:09.721Z,3.40
2018-06-27T22:10:37.010Z,4.47
2018-06-27T22:13:04.270Z,3.87
2018-06-27T22:15:31.565Z,4.83
2018-06-27T22:17:58.898Z,3.80
2018-06-27T22:20:26.206Z,4.23
2018-06-27T22:22:53.488Z,3.57
2018-06-27T22:25:20.742Z,4.97
2018-06-27T22:27:48.026Z,3.80
2018-06-27T22:30:15.294Z,4.10
2018-06-27T22:32:42.601Z,3.80
2018-06-27T22:35:09.885Z,4.43
2018-06-27T22:37:37.283Z,4.50
2018-06-27T22:40:04.588Z,4.33
2018-06-27T22:42:31.914Z,4.10
2018-06-27T22:44:59.166Z,4.27
2018-06-27T22:47:26.441Z,4.13
2018-06-27T22:49:53.717Z,4.10
2018-06-27T22:52:21.026Z,4.30
2018-06-27T22:54:48.310Z,4.30
2018-06-27T22:57:15.597Z,3.90
2018-06-27T22:59:42.869Z,4.30
2018-06-27T23:02:10.146Z,4.53
2018-06-27T23:04:37.415Z,4.10
2018-06-27T23:07:04.763Z,4.00
2018-06-27T23:09:32.018Z,4.50
2018-06-27T23:11:59.284Z,4.23
2018-06-27T23:14:26.554Z,4.37
2018-06-27T23:16:53.838Z,4.30
2018-06-27T23:19:21.189Z,4.63
2018-06-27T23:21:48.460Z,4.57
2018-06-27T23:24:15.802Z,4.23
2018-06-27T23:26:43.098Z,4.47
2018-06-27T23:29:10.434Z,4.50
2018-06-27T23:31:37.706Z,4.20
2018-06-27T23:34:05.005Z,4.27
2018-06-27T23:36:32.312Z,4.17
2018-06-27T23:38:59.598Z,4.50
2018-06-27T23:41:26.910Z,4.20
2018-06-27T23:43:54.166Z,4.60
2018-06-27T23:46:21.573Z,4.40
2018-06-27T23:48:48.826Z,4.17
2018-06-27T23:51:16.144Z,4.60
2018-06-27T23:53:43.410Z,4.40
2018-06-27T23:56:10.673Z,4.70
2018-06-27T23:58:38.805Z,4.73
